createdAt,value
2022-12-23T17:41:04.706Z,99.99
2022-12-23T17:42:04.749Z,99.99
2022-12-23T17:43:04.463Z,99.99
2022-12-23T17:44:04.457Z,99.99
2022-12-23T17:45:04.535Z,99.99
2022-12-23T17:46:04.620Z,99.99
2022-12-23T17:47:04.427Z,99.99
2022-12-23T17:48:04.482Z,99.99
2022-12-23T17:49:04.452Z,99.99
2022-12-23T17:50:04.445Z,99.99
2022-12-23T17:51:04.408Z,99.99
2022-12-23T17:52:04.926Z,99.99
2022-12-23T17:53:04.509Z,99.99
2022-12-23T17:54:07.461Z,99.99
2022-12-23T17:55:04.396Z,99.99
2022-12-23T17:56:04.327Z,99.99
2022-12-23T17:57:04.335Z,99.99
2022-12-23T17:58:04.355Z,99.99
2022-12-23T17:59:04.301Z,99.99
2022-12-23T18:00:04.324Z,99.99
2022-12-23T18:01:04.475Z,99.99
2022-12-23T18:02:04.303Z,99.99
2022-12-23T18:03:04.321Z,99.99
2022-12-23T18:04:04.291Z,99.99
2022-12-23T18:05:04.291Z,99.99
2022-12-23T18:06:04.263Z,99.99
2022-12-23T18:07:04.270Z,99.99
2022-12-23T18:08:05.083Z,99.99
2022-12-23T18:09:08.257Z,99.99
2022-12-23T18:10:04.227Z,99.99
2022-12-23T18:11:04.599Z,99.99
2022-12-23T18:12:04.322Z,99.59
2022-12-23T18:13:04.223Z,99.39
2022-12-23T18:14:04.143Z,99.18
2022-12-23T18:15:04.148Z,98.77
2022-12-23T18:16:05.083Z,98.68
2022-12-23T18:17:04.234Z,98.68
2022-12-23T18:18:04.118Z,98.88
2022-12-23T18:19:04.131Z,98.98
2022-12-23T18:20:04.222Z,98.88
2022-12-23T18:21:04.076Z,98.68
2022-12-23T18:22:04.074Z,99.08
2022-12-23T18:23:04.234Z,99.29
2022-12-23T18:24:07.287Z,99.49
2022-12-23T18:25:04.123Z,99.49
2022-12-23T18:26:04.087Z,99.59
2022-12-23T18:27:04.083Z,99.59
2022-12-23T18:28:04.034Z,99.39
2022-12-23T18:29:03.976Z,99.29
2022-12-23T18:30:04.006Z,98.88
2022-12-23T18:31:04.055Z,98.16
2022-12-23T18:32:04.004Z,97.61
2022-12-23T18:33:03.965Z,97.50
2022-12-23T18:34:03.920Z,97.61
2022-12-23T18:35:03.989Z,97.61
2022-12-23T18:36:03.953Z,97.91
2022-12-23T18:37:03.939Z,97.40
2022-12-23T18:38:03.881Z,97.61
2022-12-23T18:39:06.937Z,97.71
2022-12-23T18:40:03.893Z,97.30
2022-12-23T18:41:03.882Z,97.20
2022-12-23T18:42:03.889Z,97.00
2022-12-23T18:43:03.875Z,96.84
2022-12-23T18:44:03.877Z,96.44
2022-12-23T18:45:03.896Z,96.64
2022-12-23T18:46:03.844Z,96.75
2022-12-23T18:47:03.865Z,96.89
2022-12-23T18:48:03.853Z,96.95
2022-12-23T18:49:03.776Z,96.69
2022-12-23T18:50:03.793Z,96.64
2022-12-23T18:51:03.825Z,96.79
2022-12-23T18:52:03.819Z,96.89
2022-12-23T18:53:03.766Z,96.69
2022-12-23T18:54:06.781Z,96.23
2022-12-23T18:55:03.763Z,96.64
2022-12-23T18:56:03.769Z,97.09
2022-12-23T18:57:03.702Z,96.08
2022-12-23T18:58:03.666Z,94.91
2022-12-23T18:59:03.726Z,95.12
2022-12-23T19:00:04.066Z,95.01
2022-12-23T19:01:03.707Z,95.12
2022-12-23T19:02:03.738Z,95.21
2022-12-23T19:03:03.734Z,95.32
2022-12-23T19:04:03.762Z,95.73
2022-12-23T19:05:03.742Z,95.42
2022-12-23T19:06:04.574Z,94.20
2022-12-23T19:07:03.605Z,93.69
2022-12-23T19:08:03.597Z,93.07
2022-12-23T19:09:07.534Z,93.38
2022-12-23T19:10:03.677Z,90.79
2022-12-23T19:11:03.601Z,89.87
2022-12-23T19:12:03.597Z,89.97
2022-12-23T19:13:03.510Z,90.38
2022-12-23T19:14:03.551Z,90.48
2022-12-23T19:15:03.723Z,90.48
2022-12-23T19:16:03.605Z,90.08
2022-12-23T19:17:03.560Z,88.55
2022-12-23T19:18:03.472Z,89.26
2022-12-23T19:19:03.473Z,89.67
2022-12-23T19:20:03.458Z,89.67
2022-12-23T19:21:03.504Z,88.90
2022-12-23T19:22:03.496Z,86.21
2022-12-23T19:23:03.425Z,85.25
2022-12-23T19:24:06.457Z,85.90
2022-12-23T19:25:06.550Z,84.78
2022-12-23T19:26:04.348Z,85.39
2022-12-23T19:27:03.427Z,85.49
2022-12-23T19:28:03.386Z,83.01
2022-12-23T19:29:03.370Z,83.62
2022-12-23T19:30:03.406Z,82.90
2022-12-23T19:31:03.359Z,83.01
2022-12-23T19:32:03.434Z,83.92
2022-12-23T19:33:03.348Z,82.80
2022-12-23T19:34:03.357Z,83.11
2022-12-23T19:35:04.344Z,82.90
2022-12-23T19:36:03.344Z,83.01
2022-12-23T19:37:03.327Z,83.21
2022-12-23T19:38:03.273Z,83.01
2022-12-23T19:39:06.262Z,82.90
2022-12-23T19:40:03.334Z,82.80
2022-12-23T19:41:03.522Z,83.62
2022-12-23T19:42:03.211Z,83.51
2022-12-23T19:43:03.320Z,84.03
2022-12-23T19:44:03.221Z,83.42
2022-12-23T19:45:03.487Z,84.23
2022-12-23T19:46:03.292Z,84.58
2022-12-23T19:47:03.188Z,85.19
2022-12-23T19:48:03.173Z,85.80
2022-12-23T19:49:03.257Z,85.84
2022-12-23T19:50:03.164Z,85.63
2022-12-23T19:51:03.334Z,86.04
2022-12-23T19:52:04.110Z,86.04
2022-12-23T19:53:04.088Z,86.04
2022-12-23T19:54:06.144Z,86.04
2022-12-23T19:55:03.103Z,86.04
2022-12-23T19:56:03.099Z,85.84
2022-12-23T19:57:03.156Z,85.94
2022-12-23T19:58:03.079Z,86.35
2022-12-23T19:59:03.084Z,86.24
2022-12-23T20:00:03.062Z,86.80
2022-12-23T20:01:03.026Z,86.29
2022-12-23T20:02:03.126Z,86.08
2022-12-23T20:03:03.054Z,85.77
2022-12-23T20:04:03.017Z,85.98
2022-12-23T20:05:03.131Z,85.57
2022-12-23T20:06:03.006Z,85.27
2022-12-23T20:07:03.018Z,85.22
2022-12-23T20:08:02.962Z,85.13
2022-12-23T20:09:05.950Z,85.33
2022-12-23T20:10:02.968Z,85.13
2022-12-23T20:11:02.937Z,84.96
2022-12-23T20:12:02.987Z,85.77
2022-12-23T20:13:02.921Z,85.57
2022-12-23T20:14:02.908Z,85.88
2022-12-23T20:15:02.963Z,85.98
2022-12-23T20:16:03.017Z,85.06
2022-12-23T20:17:03.242Z,84.20
2022-12-23T20:18:02.871Z,84.41
2022-12-23T20:19:02.881Z,83.90
2022-12-23T20:20:02.840Z,83.59
2022-12-23T20:21:02.949Z,83.59
2022-12-23T20:22:02.851Z,84.00
2022-12-23T20:23:02.818Z,84.20
2022-12-23T20:24:05.863Z,84.41
2022-12-23T20:25:02.808Z,84.61
2022-12-23T20:26:02.780Z,85.02
2022-12-23T20:27:06.328Z,84.51
2022-12-23T20:28:02.800Z,84.61
2022-12-23T20:29:02.752Z,83.59
2022-12-23T20:30:02.739Z,83.35
2022-12-23T20:31:02.766Z,83.04
2022-12-23T20:32:02.708Z,83.11
2022-12-23T20:33:02.870Z,83.45
2022-12-23T20:34:02.673Z,83.25
2022-12-23T20:35:02.687Z,83.65
2022-12-23T20:36:02.707Z,83.56
2022-12-23T20:37:02.653Z,84.37
2022-12-23T20:38:02.631Z,84.47
2022-12-23T20:39:05.633Z,84.88
2022-12-23T20:40:02.637Z,84.98
2022-12-23T20:41:02.629Z,85.02
2022-12-23T20:42:02.676Z,85.33
2022-12-23T20:43:02.610Z,85.19
2022-12-23T20:45:03.569Z,85.33
2022-12-23T20:46:02.658Z,85.60
2022-12-23T20:47:02.827Z,86.04
2022-12-23T20:48:02.528Z,85.43
2022-12-23T20:49:02.574Z,85.39
2022-12-23T20:50:02.522Z,85.69
2022-12-23T20:51:02.539Z,85.84
2022-12-23T20:52:02.496Z,85.53
2022-12-23T20:53:02.475Z,85.84
2022-12-23T20:54:05.526Z,85.74
2022-12-23T20:55:02.510Z,85.63
2022-12-23T20:56:02.507Z,86.35
2022-12-23T20:57:02.488Z,86.35
2022-12-23T20:58:02.443Z,86.55
2022-12-23T20:59:02.430Z,86.24
2022-12-23T21:00:02.575Z,86.55
2022-12-23T21:01:02.406Z,86.45
2022-12-23T21:02:02.528Z,86.45
2022-12-23T21:03:08.411Z,86.35
2022-12-23T21:04:02.409Z,86.76
2022-12-23T21:05:02.423Z,86.76
2022-12-23T21:06:02.381Z,87.06
2022-12-23T21:07:02.365Z,86.76
2022-12-23T21:08:02.358Z,86.45
2022-12-23T21:09:05.330Z,86.59
2022-12-23T21:10:02.323Z,86.90
2022-12-23T21:11:02.329Z,87.20
2022-12-23T21:12:02.310Z,87.71
2022-12-23T21:13:02.302Z,88.12
2022-12-23T21:14:06.807Z,88.43
2022-12-23T21:15:02.290Z,88.26
2022-12-23T21:16:02.482Z,88.57
2022-12-23T21:17:02.296Z,88.26
2022-12-23T21:18:02.332Z,88.17
2022-12-23T21:19:02.247Z,87.65
2022-12-23T21:20:07.565Z,87.35
2022-12-23T21:21:02.195Z,87.65
2022-12-23T21:22:02.218Z,87.10
2022-12-23T21:23:02.187Z,87.00
2022-12-23T21:24:05.260Z,86.80
2022-12-23T21:25:02.217Z,87.10
2022-12-23T21:26:02.169Z,86.59
2022-12-23T21:27:02.412Z,86.49
2022-12-23T21:28:02.151Z,86.69
2022-12-23T21:29:02.110Z,87.00
2022-12-23T21:30:02.203Z,86.59
2022-12-23T21:31:02.150Z,86.59
2022-12-23T21:32:02.177Z,86.59
2022-12-23T21:33:02.088Z,86.35
2022-12-23T21:34:02.114Z,86.24
2022-12-23T21:35:02.048Z,86.65
2022-12-23T21:36:02.090Z,86.24
2022-12-23T21:37:02.202Z,86.55
2022-12-23T21:38:02.042Z,86.55
2022-12-23T21:39:05.018Z,86.45
2022-12-23T21:40:02.003Z,86.76
2022-12-23T21:41:02.218Z,86.96
2022-12-23T21:42:02.036Z,86.76
2022-12-23T21:43:08.322Z,86.65
2022-12-23T21:44:01.975Z,86.76
2022-12-23T21:45:01.981Z,86.86
2022-12-23T21:46:01.995Z,87.16
2022-12-23T21:47:01.980Z,87.37
2022-12-23T21:48:01.922Z,87.06
2022-12-23T21:49:01.972Z,87.26
2022-12-23T21:50:01.914Z,87.26
2022-12-23T21:51:01.911Z,87.26
2022-12-23T21:52:01.891Z,87.26
2022-12-23T21:53:01.856Z,87.57
2022-12-23T21:54:05.914Z,87.47
2022-12-23T21:55:01.897Z,87.67
2022-12-23T21:56:01.886Z,87.77
2022-12-23T21:57:01.837Z,87.98
2022-12-23T21:58:02.811Z,87.92
2022-12-23T21:59:01.816Z,88.22
2022-12-23T22:00:02.824Z,88.28
2022-12-23T22:01:01.836Z,88.18
2022-12-23T22:02:01.821Z,88.43
2022-12-23T22:03:01.772Z,88.53
2022-12-23T22:04:01.737Z,88.63
2022-12-23T22:05:01.944Z,88.73
2022-12-23T22:06:03.353Z,88.79
2022-12-23T22:07:01.825Z,88.39
2022-12-23T22:08:01.716Z,88.18
2022-12-23T22:09:04.707Z,88.39
2022-12-23T22:10:01.750Z,88.39
2022-12-23T22:11:01.664Z,88.28
2022-12-23T22:12:01.828Z,88.49
2022-12-23T22:13:01.752Z,88.69
2022-12-23T22:14:01.777Z,88.69
2022-12-23T22:15:05.051Z,88.69
2022-12-23T22:16:01.657Z,88.69
2022-12-23T22:17:01.715Z,88.59
2022-12-23T22:18:01.656Z,88.49
2022-12-23T22:19:01.628Z,88.59
2022-12-23T22:20:01.584Z,88.69
2022-12-23T22:21:01.630Z,89.00
2022-12-23T22:22:01.694Z,88.90
2022-12-23T22:23:01.542Z,88.90
2022-12-23T22:24:04.781Z,88.90
2022-12-23T22:25:01.683Z,88.79
2022-12-23T22:26:01.593Z,89.10
2022-12-23T22:27:01.571Z,89.30
2022-12-23T22:28:01.610Z,89.10
2022-12-23T22:29:01.538Z,89.10
2022-12-23T22:30:01.472Z,89.00
